Airfield :
LOGIN :

Register | Disclaimer

   EN    FR    IT 

 










Legend :    VFR   Marginal VFR   IFR   Intensive IFR   Very Intensive IFR
Visi :
Ceiling :
>= 8 km
>= 3000ft
5 to 8 km
1000 to 3000 ft
1500m to 5 km
500 to 1000 ft
800 to 1500m
200 to 500 ft
< 800m
< 200 ft
Symbols :   Thunderstorms  Fog  Heavy snow  Heavy precipitations  Wind > 20 kt
SIGMETs :     Misc.  Thunderstorms  Icing  Turbulence  Mountain Waves  Volcanic Ashes






- Airport Elevation : 184 ft
- IATA code : BRU


EBBR - Bruxelles

CURRENT METAR :
  • 300350Z 15004KT 9999 FEW028 13/12 Q1015 BECMG BKN012

EXPIRED METARs :
  • 300320Z 16004KT 9999 FEW028 13/12 Q1015 BECMG BKN012
  • 300250Z 19003KT 9999 FEW031 13/12 Q1015 BECMG BKN012
  • 300220Z 21004KT 9999 FEW035 14/12 Q1016 BECMG BKN012
  • 300150Z 20004KT CAVOK 14/13 Q1016 NOSIG
  • 300120Z 20005KT 9999 BKN047 14/13 Q1016 NOSIG

TAF TAF EBBR
Valid from the 30 at 00:00 until the 01 at 06:00 UTC


292312Z 3000/0106 19004KT 9999 FEW024
PROB40
TEMPO 3002/3009 4000 BR BKN007
PROB30
TEMPO 3005/3010 4000 SHRA BKN014TCU
PROB40
TEMPO 0104/0106 4000 SHRA BKN013TCU



MET'MAP, your aeronautical weather chart ! - Copyright ORBIFLY December 2007 - Disclaimer

ORBIFLY MET'MAP TEAM :

Programming & Development : Alexandra Zaïnal
Concept & original design : Baudouin d'Aumeries
Assistance for programming : Marc-Olivier Méhu
Technical & hardware support : Manuel Goepfert

Contact : metmap@orbifly.com




SOURCES & CREDITS :

   NOAA